createdAt,value
2022-09-07T00:01:01.060Z,93.09
2022-09-07T00:03:27.921Z,92.62
2022-09-07T00:05:54.485Z,93.30
2022-09-07T00:08:23.262Z,93.90
2022-09-07T00:10:56.786Z,93.08
2022-09-07T00:13:24.798Z,92.48
2022-09-07T00:15:52.079Z,92.38
2022-09-07T00:18:19.390Z,93.19
2022-09-07T00:20:45.867Z,92.68
2022-09-07T00:23:12.814Z,91.96
2022-09-07T00:25:40.550Z,93.61
2022-09-07T00:28:08.578Z,93.88
2022-09-07T00:30:41.264Z,93.53
2022-09-07T00:33:07.778Z,94.22
2022-09-07T00:35:39.796Z,94.33
2022-09-07T00:38:06.317Z,94.32
2022-09-07T00:40:32.817Z,93.47
2022-09-07T00:42:59.275Z,93.23
2022-09-07T00:45:25.970Z,94.01
2022-09-07T00:47:59.280Z,93.99
2022-09-07T00:50:28.919Z,94.36
2022-09-07T00:53:04.946Z,94.03
2022-09-07T00:55:33.110Z,93.97
2022-09-07T00:58:00.241Z,93.63
2022-09-07T01:00:27.368Z,93.68
2022-09-07T01:02:56.639Z,94.61
2022-09-07T01:05:54.111Z,94.14
2022-09-07T01:08:21.322Z,94.25
2022-09-07T01:10:47.951Z,93.85
2022-09-07T01:13:15.185Z,93.38
2022-09-07T01:16:10.753Z,94.16
2022-09-07T01:18:47.216Z,93.64
2022-09-07T01:21:44.517Z,94.06
2022-09-07T01:24:29.418Z,94.20
2022-09-07T01:27:33.689Z,93.59
2022-09-07T01:30:05.878Z,95.55
2022-09-07T01:32:44.424Z,94.48
2022-09-07T01:35:20.318Z,94.50
2022-09-07T01:38:02.953Z,94.67
2022-09-07T01:40:40.015Z,94.38
2022-09-07T01:43:17.201Z,94.23
2022-09-07T01:45:45.797Z,93.34
2022-09-07T01:48:16.666Z,94.11
2022-09-07T01:51:01.574Z,94.08
2022-09-07T01:53:43.290Z,94.16
2022-09-07T01:56:14.715Z,94.13
2022-09-07T01:59:30.745Z,93.88
2022-09-07T02:02:11.388Z,93.11
2022-09-07T02:04:46.121Z,92.86
2022-09-07T02:07:20.365Z,93.81
2022-09-07T02:09:54.439Z,93.97
2022-09-07T02:12:26.837Z,93.86
2022-09-07T02:14:59.969Z,93.44
2022-09-07T02:17:34.361Z,93.06
2022-09-07T02:20:12.771Z,93.79
2022-09-07T02:22:44.300Z,94.30
2022-09-07T02:25:17.437Z,93.63
2022-09-07T02:27:48.326Z,93.95
2022-09-07T02:30:15.400Z,93.96
2022-09-07T02:32:42.069Z,94.71
2022-09-07T02:35:09.510Z,95.21
2022-09-07T02:37:37.846Z,95.92
2022-09-07T02:40:05.429Z,95.88
2022-09-07T02:42:34.265Z,96.38
2022-09-07T02:45:05.090Z,96.56
2022-09-07T02:47:45.175Z,96.16
2022-09-07T02:50:30.814Z,95.83
2022-09-07T02:53:29.365Z,96.33
2022-09-07T02:56:33.084Z,96.14
2022-09-07T02:59:17.982Z,95.85
2022-09-07T03:02:08.423Z,96.55
2022-09-07T03:05:19.838Z,97.27
2022-09-07T03:07:56.220Z,96.94
2022-09-07T03:10:23.249Z,97.41
2022-09-07T03:12:51.251Z,96.85
2022-09-07T03:15:21.210Z,96.71
2022-09-07T03:17:48.133Z,97.01
2022-09-07T03:20:16.477Z,96.38
2022-09-07T03:22:47.743Z,96.55
2022-09-07T03:25:15.374Z,96.23
2022-09-07T03:27:42.508Z,96.13
2022-09-07T03:30:10.843Z,95.51
2022-09-07T03:32:38.521Z,95.77
2022-09-07T03:35:06.626Z,96.31
2022-09-07T03:37:36.304Z,96.87
2022-09-07T03:40:04.643Z,96.97
2022-09-07T03:42:31.186Z,97.16
2022-09-07T03:44:57.650Z,97.64
2022-09-07T03:47:24.130Z,96.79
2022-09-07T03:49:51.764Z,97.85
2022-09-07T03:52:18.257Z,97.92
2022-09-07T03:54:44.874Z,97.57
2022-09-07T03:57:11.833Z,97.40
2022-09-07T03:59:38.285Z,96.65
2022-09-07T04:02:05.052Z,96.42
2022-09-07T04:04:31.647Z,96.93
2022-09-07T04:06:58.151Z,95.91
2022-09-07T04:09:24.656Z,96.11
2022-09-07T04:11:51.127Z,96.75
2022-09-07T04:14:17.918Z,96.80
2022-09-07T04:16:45.599Z,96.62
2022-09-07T04:19:12.143Z,96.14
2022-09-07T04:21:39.055Z,96.96
2022-09-07T04:24:05.835Z,98.14
2022-09-07T04:26:34.357Z,97.90
2022-09-07T04:29:04.106Z,97.71
2022-09-07T04:31:32.684Z,97.23
2022-09-07T04:33:59.298Z,97.62
2022-09-07T04:36:25.878Z,97.91
2022-09-07T04:38:57.395Z,97.74
2022-09-07T04:41:24.358Z,97.92
2022-09-07T04:43:56.614Z,98.78
2022-09-07T04:46:35.860Z,98.41
2022-09-07T04:49:08.582Z,98.54
2022-09-07T04:51:36.335Z,99.60
2022-09-07T04:54:04.071Z,99.41
2022-09-07T04:56:31.863Z,100.00
2022-09-07T04:59:00.650Z,98.91
2022-09-07T05:01:27.651Z,98.33
2022-09-07T05:03:54.200Z,98.46
2022-09-07T05:06:22.290Z,98.52
2022-09-07T05:08:51.534Z,99.62
2022-09-07T05:11:19.596Z,99.25
2022-09-07T05:13:46.163Z,98.88
2022-09-07T05:16:20.730Z,98.53
2022-09-07T05:19:01.682Z,98.12
2022-09-07T05:21:30.484Z,97.92
2022-09-07T05:23:58.924Z,97.75
2022-09-07T05:26:27.777Z,97.87
2022-09-07T05:31:41.430Z,98.48
2022-09-07T05:36:56.100Z,98.00
2022-09-07T05:39:23.013Z,97.76
2022-09-07T05:41:49.818Z,97.68
2022-09-07T05:47:02.826Z,97.08
2022-09-07T05:49:30.294Z,97.26
2022-09-07T05:51:56.832Z,97.01
2022-09-07T05:54:23.669Z,96.53
2022-09-07T05:56:50.132Z,96.30
2022-09-07T05:59:16.586Z,95.50
2022-09-07T06:01:43.103Z,94.45
2022-09-07T06:04:09.873Z,94.83
2022-09-07T06:06:38.710Z,94.66
2022-09-07T06:09:05.245Z,94.63
2022-09-07T06:11:31.738Z,95.06
2022-09-07T06:13:58.206Z,93.58
2022-09-07T06:16:24.825Z,94.95
2022-09-07T06:18:51.422Z,94.19
2022-09-07T06:21:20.537Z,94.78
2022-09-07T06:23:48.706Z,94.37
2022-09-07T06:26:16.821Z,94.72
2022-09-07T06:28:50.281Z,94.13
2022-09-07T06:31:20.410Z,94.09
2022-09-07T06:33:48.132Z,95.07
2022-09-07T06:36:17.077Z,95.52
2022-09-07T06:38:44.451Z,94.27
2022-09-07T06:44:04.650Z,94.10
2022-09-07T06:49:17.671Z,92.98
2022-09-07T06:51:44.467Z,92.70
2022-09-07T06:56:57.652Z,92.34
2022-09-07T06:59:24.203Z,91.87
2022-09-07T07:01:50.703Z,91.26
2022-09-07T07:04:17.170Z,91.81
2022-09-07T07:06:43.652Z,91.84
2022-09-07T07:09:13.755Z,91.83
2022-09-07T07:11:40.246Z,92.04
2022-09-07T07:14:06.783Z,91.51
2022-09-07T07:16:33.360Z,90.72
2022-09-07T07:18:59.895Z,90.64
2022-09-07T07:21:28.925Z,90.52
2022-09-07T07:24:05.022Z,89.01
2022-09-07T07:26:34.695Z,88.90
2022-09-07T07:29:03.969Z,89.89
2022-09-07T07:31:33.186Z,88.38
2022-09-07T07:33:59.905Z,88.56
2022-09-07T07:36:27.563Z,87.77
2022-09-07T07:38:58.863Z,88.00
2022-09-07T07:44:18.014Z,84.97
2022-09-07T07:46:48.614Z,85.86
2022-09-07T07:49:15.085Z,85.20
2022-09-07T07:54:27.902Z,84.93
2022-09-07T07:56:54.328Z,83.78
2022-09-07T07:59:20.745Z,80.57
2022-09-07T08:01:47.276Z,80.87
2022-09-07T08:04:13.877Z,80.94
2022-09-07T08:06:43.131Z,79.17
2022-09-07T08:09:10.977Z,79.26
2022-09-07T08:11:40.092Z,77.38
2022-09-07T08:14:08.603Z,76.95
2022-09-07T08:16:36.253Z,77.45
2022-09-07T08:19:03.391Z,77.44
2022-09-07T08:21:29.875Z,77.93
2022-09-07T08:23:57.560Z,77.85
2022-09-07T08:26:23.981Z,77.66
2022-09-07T08:28:50.386Z,76.88
2022-09-07T08:31:17.221Z,76.50
2022-09-07T08:33:44.430Z,76.86
2022-09-07T08:36:17.614Z,76.83
2022-09-07T08:38:44.747Z,75.68
2022-09-07T08:41:22.917Z,76.01
2022-09-07T08:43:59.634Z,74.01
2022-09-07T08:46:34.559Z,73.94
2022-09-07T08:49:03.243Z,74.95
2022-09-07T08:51:32.313Z,74.07
2022-09-07T08:53:59.046Z,74.62
2022-09-07T08:56:33.679Z,71.94
2022-09-07T08:59:06.593Z,72.20
2022-09-07T09:01:37.965Z,71.05
2022-09-07T09:04:17.332Z,71.21
2022-09-07T09:07:05.753Z,70.56
2022-09-07T09:09:53.930Z,68.58
2022-09-07T09:12:40.359Z,66.58
2022-09-07T09:15:21.513Z,66.92
2022-09-07T09:18:28.802Z,66.08
2022-09-07T09:20:57.015Z,67.14
2022-09-07T09:23:26.916Z,65.75
2022-09-07T09:25:55.979Z,65.22
2022-09-07T09:28:23.975Z,65.30
2022-09-07T09:30:51.998Z,65.68
2022-09-07T09:33:27.465Z,67.31
2022-09-07T09:36:00.004Z,67.49
2022-09-07T09:38:29.317Z,68.22
2022-09-07T09:40:58.181Z,68.53
2022-09-07T09:43:28.147Z,68.19
2022-09-07T09:46:12.976Z,69.41
2022-09-07T09:48:41.614Z,68.54
2022-09-07T09:54:06.288Z,68.76
2022-09-07T09:56:44.849Z,68.42
2022-09-07T10:05:22.840Z,66.82
2022-09-07T10:07:53.654Z,66.00
2022-09-07T10:10:20.445Z,67.06
2022-09-07T10:12:46.973Z,67.78
2022-09-07T10:15:30.003Z,67.01
2022-09-07T10:17:58.165Z,67.26
2022-09-07T10:20:33.620Z,68.06
2022-09-07T10:23:01.214Z,66.43
2022-09-07T10:25:32.363Z,64.54
2022-09-07T10:28:03.312Z,63.94
2022-09-07T10:30:41.312Z,63.28
2022-09-07T10:33:24.275Z,63.44
2022-09-07T10:36:15.540Z,62.68
2022-09-07T10:38:53.794Z,63.38
2022-09-07T10:41:31.431Z,63.25
2022-09-07T10:43:58.761Z,62.37
2022-09-07T10:47:03.691Z,65.48
2022-09-07T10:49:39.210Z,62.52
2022-09-07T10:52:32.657Z,60.29
2022-09-07T10:55:11.943Z,60.72
2022-09-07T10:57:49.213Z,60.63
2022-09-07T11:00:19.169Z,59.76
2022-09-07T11:03:26.165Z,60.39
2022-09-07T11:06:14.011Z,59.56
2022-09-07T11:12:03.141Z,58.40
2022-09-07T11:14:45.172Z,58.72
2022-09-07T11:17:18.895Z,57.66
2022-09-07T11:19:49.331Z,57.88
2022-09-07T11:22:43.327Z,57.80
2022-09-07T11:25:34.562Z,58.39
2022-09-07T11:28:09.000Z,57.31
2022-09-07T11:30:43.625Z,56.75
2022-09-07T11:33:21.848Z,56.42
2022-09-07T11:36:02.274Z,55.75
2022-09-07T11:38:41.747Z,55.06
2022-09-07T11:41:20.564Z,54.72
2022-09-07T11:43:55.010Z,51.10
2022-09-07T11:46:39.394Z,51.06
2022-09-07T11:49:12.757Z,53.41
2022-09-07T11:51:46.422Z,53.82
2022-09-07T11:54:48.457Z,52.15
2022-09-07T11:57:14.854Z,52.55
2022-09-07T11:59:57.655Z,52.62
2022-09-07T12:02:58.288Z,51.71
2022-09-07T12:05:41.604Z,50.52
2022-09-07T12:08:26.516Z,49.51
2022-09-07T12:11:24.327Z,50.91
2022-09-07T12:14:12.503Z,52.96
2022-09-07T12:17:03.838Z,48.33
2022-09-07T12:19:30.375Z,47.51
2022-09-07T12:21:59.344Z,46.91
2022-09-07T12:24:43.821Z,44.81
2022-09-07T12:27:20.383Z,45.32
2022-09-07T12:30:10.352Z,46.12
2022-09-07T12:32:57.374Z,48.55
2022-09-07T12:35:37.161Z,50.47
2022-09-07T12:38:24.671Z,51.60
2022-09-07T12:41:20.537Z,52.30
2022-09-07T12:43:49.922Z,54.18
2022-09-07T12:46:47.133Z,53.92
2022-09-07T12:49:50.490Z,53.70
2022-09-07T12:52:25.834Z,54.26
2022-09-07T12:55:23.534Z,53.59
2022-09-07T12:57:54.461Z,53.92
2022-09-07T13:00:24.062Z,53.58
2022-09-07T13:03:05.845Z,52.98
2022-09-07T13:05:51.600Z,52.23
2022-09-07T13:08:27.110Z,53.36
2022-09-07T13:10:53.662Z,49.16
2022-09-07T13:16:31.387Z,46.61
2022-09-07T13:19:01.893Z,46.66
2022-09-07T13:21:40.576Z,49.14
2022-09-07T13:27:05.415Z,44.06
2022-09-07T13:29:40.833Z,46.80
2022-09-07T13:33:07.943Z,47.93
2022-09-07T13:35:18.710Z,47.12
2022-09-07T13:37:54.380Z,47.55
2022-09-07T13:40:30.519Z,46.30
2022-09-07T13:42:58.591Z,46.95
2022-09-07T13:45:55.807Z,46.02
2022-09-07T13:48:34.271Z,47.46
2022-09-07T13:51:13.414Z,47.33
2022-09-07T13:54:19.129Z,48.19
2022-09-07T13:57:03.762Z,47.75
2022-09-07T13:59:35.068Z,49.55
2022-09-07T14:02:02.434Z,49.27
2022-09-07T14:04:41.583Z,49.14
2022-09-07T14:07:16.543Z,50.02
2022-09-07T14:09:42.942Z,52.86
2022-09-07T14:12:19.209Z,51.27
2022-09-07T14:14:46.806Z,53.11
2022-09-07T14:17:19.372Z,50.17
2022-09-07T14:19:51.477Z,50.22
2022-09-07T14:22:22.785Z,48.90
2022-09-07T14:24:52.956Z,48.79
2022-09-07T14:27:21.603Z,48.61
2022-09-07T14:29:48.043Z,49.35
2022-09-07T14:32:18.928Z,49.55
2022-09-07T14:34:46.532Z,49.67
2022-09-07T14:37:15.630Z,48.95
2022-09-07T14:39:46.046Z,49.84
2022-09-07T14:42:15.662Z,49.27
2022-09-07T14:44:45.344Z,50.38
2022-09-07T14:47:30.855Z,49.25
2022-09-07T14:50:05.806Z,48.83
2022-09-07T14:53:33.106Z,47.67
2022-09-07T14:55:34.685Z,46.72
2022-09-07T14:58:13.319Z,46.05
2022-09-07T15:00:46.020Z,46.18
2022-09-07T15:03:39.200Z,46.92
2022-09-07T15:06:06.961Z,46.36
2022-09-07T15:08:43.870Z,49.06
2022-09-07T15:11:34.364Z,47.30
2022-09-07T15:14:03.607Z,47.57
2022-09-07T15:16:33.481Z,47.29
2022-09-07T15:19:02.346Z,47.25
2022-09-07T15:21:34.001Z,47.53
2022-09-07T15:24:01.368Z,47.43
2022-09-07T15:29:24.452Z,46.57
2022-09-07T15:32:02.196Z,46.97
2022-09-07T15:34:30.809Z,46.97
2022-09-07T15:37:00.147Z,48.98
2022-09-07T15:39:29.956Z,48.28
2022-09-07T15:41:58.209Z,48.16
2022-09-07T15:44:28.321Z,49.83
2022-09-07T15:49:47.698Z,46.51
2022-09-07T15:52:16.752Z,47.86
2022-09-07T15:54:43.507Z,46.03
2022-09-07T15:59:56.510Z,45.51
2022-09-07T16:05:10.164Z,46.97
2022-09-07T16:10:23.173Z,49.39
2022-09-07T16:13:10.923Z,49.27
2022-09-07T16:15:45.277Z,48.96
2022-09-07T16:18:17.220Z,49.96
2022-09-07T16:20:44.794Z,50.77
2022-09-07T16:23:14.751Z,50.13
2022-09-07T16:25:43.414Z,51.65
2022-09-07T16:28:10.571Z,51.95
2022-09-07T16:30:40.908Z,52.17
2022-09-07T16:33:08.289Z,51.67
2022-09-07T16:35:34.939Z,53.45
2022-09-07T16:40:50.120Z,53.40
2022-09-07T16:43:16.916Z,53.63
2022-09-07T16:48:34.698Z,55.48
2022-09-07T16:51:02.952Z,54.67
2022-09-07T16:53:32.265Z,56.71
2022-09-07T16:56:16.954Z,58.04
2022-09-07T16:58:49.263Z,58.05
2022-09-07T17:01:18.775Z,60.22
2022-09-07T17:03:46.264Z,61.02
2022-09-07T17:06:14.667Z,62.32
2022-09-07T17:08:41.956Z,62.83
2022-09-07T17:11:16.478Z,62.27
2022-09-07T17:13:43.311Z,62.89
2022-09-07T17:16:14.157Z,63.39
2022-09-07T17:21:31.227Z,63.93
2022-09-07T17:23:59.460Z,65.33
2022-09-07T17:26:27.306Z,65.94
2022-09-07T17:28:59.569Z,66.01
2022-09-07T17:34:15.443Z,67.27
2022-09-07T17:36:42.731Z,68.35
2022-09-07T17:39:18.062Z,68.72
2022-09-07T17:41:46.652Z,68.68
2022-09-07T17:44:13.826Z,70.44
2022-09-07T17:46:40.409Z,68.99
2022-09-07T17:49:08.217Z,70.20
2022-09-07T17:51:36.090Z,71.30
2022-09-07T17:54:12.317Z,72.35
2022-09-07T17:56:40.125Z,72.24
2022-09-07T18:01:54.281Z,73.40
2022-09-07T18:04:21.409Z,72.76
2022-09-07T18:06:48.183Z,72.90
2022-09-07T18:09:14.734Z,74.65
2022-09-07T18:11:44.818Z,75.48
2022-09-07T18:14:14.187Z,75.36
2022-09-07T18:16:41.335Z,74.74
2022-09-07T18:19:08.628Z,74.32
2022-09-07T18:21:37.320Z,73.85
2022-09-07T18:24:07.651Z,75.62
2022-09-07T18:26:38.348Z,75.42
2022-09-07T18:29:12.972Z,75.34
2022-09-07T18:31:45.811Z,75.53
2022-09-07T18:34:12.431Z,77.32
2022-09-07T18:36:40.779Z,76.18
2022-09-07T18:39:10.054Z,76.09
2022-09-07T18:41:37.567Z,76.85
2022-09-07T18:44:04.203Z,78.32
2022-09-07T18:46:30.895Z,78.47
2022-09-07T18:48:58.222Z,77.76
2022-09-07T18:51:24.898Z,78.96
2022-09-07T18:53:51.353Z,79.88
2022-09-07T18:56:20.330Z,79.66
2022-09-07T18:58:47.724Z,80.44
2022-09-07T19:01:16.556Z,79.06
2022-09-07T19:03:44.240Z,80.40
2022-09-07T19:06:15.188Z,80.18
2022-09-07T19:08:43.543Z,80.33
2022-09-07T19:11:22.161Z,81.21
2022-09-07T19:13:48.616Z,80.79
2022-09-07T19:16:17.510Z,80.75
2022-09-07T19:18:52.730Z,80.87
2022-09-07T19:21:25.242Z,80.82
2022-09-07T19:23:59.470Z,80.84
2022-09-07T19:26:29.526Z,81.63
2022-09-07T19:28:58.050Z,80.99
2022-09-07T19:31:25.968Z,80.51
2022-09-07T19:34:00.095Z,80.06
2022-09-07T19:36:27.855Z,79.95
2022-09-07T19:38:54.471Z,79.63
2022-09-07T19:41:21.227Z,81.50
2022-09-07T19:43:48.397Z,81.37
2022-09-07T19:46:20.357Z,81.85
2022-09-07T19:48:49.278Z,82.09
2022-09-07T19:51:16.571Z,82.01
2022-09-07T19:53:47.111Z,82.58
2022-09-07T19:56:18.801Z,82.64
2022-09-07T19:58:45.922Z,83.24
2022-09-07T20:01:14.807Z,82.60
2022-09-07T20:03:42.670Z,83.85
2022-09-07T20:06:14.567Z,83.55
2022-09-07T20:08:42.752Z,83.23
2022-09-07T20:11:14.400Z,83.13
2022-09-07T20:13:41.611Z,82.47
2022-09-07T20:16:11.757Z,82.31
2022-09-07T20:18:39.183Z,82.99
2022-09-07T20:21:07.599Z,82.47
2022-09-07T20:23:35.166Z,82.04
2022-09-07T20:26:05.299Z,83.50
2022-09-07T20:28:32.058Z,82.66
2022-09-07T20:30:58.531Z,83.12
2022-09-07T20:33:24.968Z,83.82
2022-09-07T20:35:51.656Z,82.72
2022-09-07T20:38:20.644Z,83.31
2022-09-07T20:40:54.984Z,82.71
2022-09-07T20:43:22.027Z,82.37
2022-09-07T20:45:48.683Z,82.27
2022-09-07T20:48:15.569Z,82.78
2022-09-07T20:50:42.264Z,83.63
2022-09-07T20:53:08.837Z,83.32
2022-09-07T20:55:35.984Z,84.23
2022-09-07T20:58:03.076Z,83.09
2022-09-07T21:00:29.626Z,83.17
2022-09-07T21:02:56.305Z,83.77
2022-09-07T21:05:22.770Z,83.52
2022-09-07T21:07:49.318Z,83.89
2022-09-07T21:10:15.980Z,83.28
2022-09-07T21:12:42.398Z,83.31
2022-09-07T21:15:09.179Z,83.13
2022-09-07T21:17:35.598Z,84.07
2022-09-07T21:20:02.227Z,83.43
2022-09-07T21:22:28.625Z,82.68
2022-09-07T21:24:55.024Z,82.57
2022-09-07T21:27:21.483Z,83.08
2022-09-07T21:29:47.891Z,79.29
2022-09-07T21:32:14.329Z,80.17
2022-09-07T21:34:40.763Z,79.61
2022-09-07T21:37:07.166Z,79.98
2022-09-07T21:39:33.631Z,80.33
2022-09-07T21:42:00.125Z,81.13
2022-09-07T21:44:26.559Z,80.06
2022-09-07T21:46:53.003Z,78.75
2022-09-07T21:49:19.483Z,79.13
2022-09-07T21:51:45.865Z,78.93
2022-09-07T21:54:12.311Z,78.88
2022-09-07T21:56:41.079Z,79.22
2022-09-07T21:59:11.006Z,79.61
2022-09-07T22:01:37.680Z,79.10
2022-09-07T22:04:07.079Z,80.02
2022-09-07T22:06:34.430Z,79.19
2022-09-07T22:09:01.931Z,78.25
2022-09-07T22:11:29.552Z,78.48
2022-09-07T22:13:58.095Z,80.06
2022-09-07T22:16:25.330Z,79.36
2022-09-07T22:18:52.122Z,79.37
2022-09-07T22:21:26.903Z,80.56
2022-09-07T22:23:57.315Z,80.07
2022-09-07T22:26:26.545Z,79.32
2022-09-07T22:28:52.986Z,80.06
2022-09-07T22:31:24.791Z,81.00
2022-09-07T22:33:52.818Z,80.35
2022-09-07T22:36:31.059Z,79.59
2022-09-07T22:38:59.143Z,80.03
2022-09-07T22:41:38.192Z,79.10
2022-09-07T22:44:06.485Z,78.71
2022-09-07T22:46:37.451Z,79.05
2022-09-07T22:49:05.392Z,79.85
2022-09-07T22:51:31.920Z,80.86
2022-09-07T22:53:58.838Z,85.73
2022-09-07T22:56:31.304Z,89.58
2022-09-07T22:59:00.776Z,90.00
2022-09-07T23:01:28.917Z,88.58
2022-09-07T23:03:56.231Z,92.70
2022-09-07T23:06:28.435Z,94.02
2022-09-07T23:08:56.724Z,94.16
2022-09-07T23:11:24.643Z,96.24
2022-09-07T23:13:56.177Z,100.00
2022-09-07T23:16:23.021Z,100.00
2022-09-07T23:18:50.395Z,100.00
2022-09-07T23:21:17.141Z,100.00
2022-09-07T23:23:44.383Z,100.00
2022-09-07T23:26:10.818Z,100.00
2022-09-07T23:28:37.248Z,100.00
2022-09-07T23:31:03.948Z,100.00
2022-09-07T23:33:30.496Z,100.00
2022-09-07T23:36:01.803Z,100.00
2022-09-07T23:38:29.093Z,100.00
2022-09-07T23:40:58.280Z,100.00
2022-09-07T23:43:27.351Z,100.00
2022-09-07T23:45:54.169Z,100.00
2022-09-07T23:48:21.640Z,100.00
2022-09-07T23:50:48.880Z,100.00
2022-09-07T23:53:16.183Z,100.00
2022-09-07T23:55:42.843Z,100.00
2022-09-07T23:58:09.804Z,100.00
